Time;durP1;ratioP1;P1;durP2;ratioP2;P2;SDS_P1;SDS_P2;PMS_P1;PMS_P2;Temp;Humidity;BMP_temperature;BMP_pressure;BME280_temperature;BME280_humidity;BME280_pressure;Samples;Min_cycle;Max_cycle;Signal;HPM_P1;HPM_P2
2022/05/24 00:02:10;;;;;;;13.97;6.40;;;13.80;99.90;;;;;;4923309;28;20133;-79
2022/05/24 00:04:38;;;;;;;9.93;6.03;;;13.80;99.90;;;;;;4957790;28;20138;-79
2022/05/24 00:07:03;;;;;;;7.53;6.27;;;13.80;99.90;;;;;;4921504;28;20039;-79
2022/05/24 00:09:29;;;;;;;12.97;6.33;;;13.80;99.90;;;;;;4955804;28;20038;-79
2022/05/24 00:11:55;;;;;;;10.83;5.97;;;13.80;99.90;;;;;;4940205;28;20590;-80
2022/05/24 00:15:19;;;;;;;11.80;5.33;;;13.80;99.90;;;;;;4956284;28;20039;-78
2022/05/24 00:17:07;;;;;;;9.67;5.47;;;13.80;99.90;;;;;;4969841;28;20468;-79
2022/05/24 00:19:34;;;;;;;9.17;5.83;;;13.70;99.90;;;;;;4937117;28;20055;-79
2022/05/24 00:22:01;;;;;;;8.57;5.80;;;13.70;99.90;;;;;;4954696;28;20065;-79
2022/05/24 00:24:27;;;;;;;8.93;5.90;;;13.70;99.90;;;;;;4962584;28;20065;-80
2022/05/24 00:26:53;;;;;;;9.37;5.40;;;13.60;99.90;;;;;;4955000;28;20043;-79
2022/05/24 00:29:19;;;;;;;13.17;5.93;;;13.60;99.90;;;;;;4954480;28;20070;-79
2022/05/24 00:31:44;;;;;;;8.87;5.30;;;13.60;99.90;;;;;;4955678;28;20039;-79
2022/05/24 00:34:10;;;;;;;9.17;5.13;;;13.60;99.90;;;;;;4955016;28;20056;-78
2022/05/24 00:36:36;;;;;;;8.67;4.60;;;13.60;99.90;;;;;;4970469;28;20047;-79
2022/05/24 00:39:03;;;;;;;8.93;4.53;;;13.60;99.90;;;;;;4955404;28;20050;-78
2022/05/24 00:41:34;;;;;;;8.63;4.03;;;13.60;99.90;;;;;;4923064;28;20106;-78
2022/05/24 00:44:04;;;;;;;8.50;4.23;;;13.60;99.90;;;;;;4938389;28;20141;-78
2022/05/24 00:46:41;;;;;;;6.57;4.20;;;13.60;99.90;;;;;;4952229;28;20039;-78
2022/05/24 00:49:13;;;;;;;8.53;3.83;;;13.60;99.90;;;;;;4952231;28;20133;-79
2022/05/24 00:51:45;;;;;;;6.07;3.50;;;13.60;99.90;;;;;;4954109;28;20051;-79
2022/05/24 00:54:13;;;;;;;7.37;3.97;;;13.50;99.90;;;;;;4953026;28;20043;-78
2022/05/24 00:56:50;;;;;;;8.30;3.77;;;13.60;99.90;;;;;;4936783;28;20458;-78
2022/05/24 00:59:26;;;;;;;8.07;4.37;;;13.60;99.90;;;;;;4953449;28;20054;-78
2022/05/24 01:01:51;;;;;;;7.60;4.20;;;13.60;99.90;;;;;;4953589;28;20176;-77
2022/05/24 01:04:19;;;;;;;12.03;4.50;;;13.60;99.90;;;;;;4968388;28;20413;-78
2022/05/24 01:06:45;;;;;;;7.80;4.63;;;13.60;99.90;;;;;;4950619;28;20035;-78
2022/05/24 01:09:17;;;;;;;10.13;4.93;;;13.60;99.90;;;;;;4952076;28;20070;-78
2022/05/24 01:11:46;;;;;;;9.83;4.70;;;13.60;99.90;;;;;;4970435;28;20035;-78
2022/05/24 01:14:15;;;;;;;7.23;4.90;;;13.60;99.90;;;;;;4950248;28;20051;-78
2022/05/24 01:16:42;;;;;;;6.87;4.33;;;13.60;99.90;;;;;;4953545;28;20042;-79
2022/05/24 01:19:16;;;;;;;12.47;6.33;;;13.60;99.90;;;;;;4954019;28;20055;-77
2022/05/24 01:21:43;;;;;;;8.33;5.93;;;13.60;99.90;;;;;;4921525;28;20047;-79
2022/05/24 01:24:17;;;;;;;11.10;7.53;;;13.60;99.90;;;;;;4914710;28;20071;-79
2022/05/24 01:26:49;;;;;;;12.40;7.60;;;13.60;99.90;;;;;;4951601;28;20106;-79
2022/05/24 01:29:17;;;;;;;13.37;9.33;;;13.60;99.90;;;;;;4968664;28;20051;-80
2022/05/24 01:37:18;;;;;;;22.00;13.87;;;13.50;99.90;;;;;;4953115;28;20413;-80
2022/05/24 01:39:47;;;;;;;21.53;14.57;;;13.50;99.90;;;;;;4941171;28;20162;-78
2022/05/24 01:42:16;;;;;;;17.27;13.27;;;13.50;99.90;;;;;;4952976;28;20133;-79
2022/05/24 01:44:47;;;;;;;18.80;13.73;;;13.50;99.90;;;;;;4952247;28;20058;-79
2022/05/24 01:47:14;;;;;;;18.30;14.30;;;13.50;99.90;;;;;;4935720;28;20050;-79
2022/05/24 01:49:46;;;;;;;17.77;14.37;;;13.50;99.90;;;;;;4955178;28;20071;-79
2022/05/24 01:52:15;;;;;;;18.93;14.47;;;13.60;99.90;;;;;;4970243;28;20039;-78
2022/05/24 01:54:45;;;;;;;16.70;13.57;;;13.50;99.90;;;;;;4953823;28;20051;-79
2022/05/24 01:57:17;;;;;;;18.10;14.83;;;13.50;99.90;;;;;;4969727;28;20110;-78
2022/05/24 01:59:49;;;;;;;18.00;14.43;;;13.50;99.90;;;;;;4971063;28;20046;-80
2022/05/24 02:02:15;;;;;;;18.47;14.67;;;13.50;99.90;;;;;;4968388;28;20502;-79
2022/05/24 02:04:41;;;;;;;17.27;14.47;;;13.50;99.90;;;;;;4955197;28;20497;-79
2022/05/24 02:07:09;;;;;;;21.43;14.47;;;13.40;99.90;;;;;;4950774;28;20310;-80
2022/05/24 02:09:38;;;;;;;15.67;13.77;;;13.40;99.90;;;;;;4936584;28;20532;-79
2022/05/24 02:12:09;;;;;;;20.33;14.07;;;13.40;99.90;;;;;;4953483;28;20051;-79
2022/05/24 02:14:41;;;;;;;22.70;15.47;;;13.40;99.90;;;;;;4971548;28;20038;-80
2022/05/24 02:17:11;;;;;;;20.00;16.00;;;13.40;99.90;;;;;;4954716;28;20050;-78
2022/05/24 02:19:43;;;;;;;20.50;16.63;;;13.30;99.90;;;;;;4967804;28;20054;-79
2022/05/24 02:22:14;;;;;;;23.10;16.30;;;13.40;99.90;;;;;;4940555;28;20073;-79
2022/05/24 02:24:39;;;;;;;20.50;15.67;;;13.40;99.90;;;;;;4969258;28;20057;-79
2022/05/24 02:27:05;;;;;;;21.90;15.93;;;13.40;99.90;;;;;;4951198;28;20046;-79
2022/05/24 02:29:31;;;;;;;20.07;16.83;;;13.40;99.90;;;;;;4956599;28;20505;-79
2022/05/24 02:31:59;;;;;;;20.60;16.93;;;13.40;99.90;;;;;;4953418;28;20058;-79
2022/05/24 02:34:25;;;;;;;22.90;17.13;;;13.40;99.90;;;;;;4954316;28;20138;-79
2022/05/24 02:36:50;;;;;;;29.97;21.27;;;13.40;99.90;;;;;;4953221;28;20461;-79
2022/05/24 02:39:16;;;;;;;27.57;20.57;;;13.40;99.90;;;;;;4954656;28;20065;-79
2022/05/24 02:41:43;;;;;;;28.80;22.07;;;13.40;99.90;;;;;;4939539;28;20102;-79
2022/05/24 02:44:12;;;;;;;33.37;24.13;;;13.40;99.90;;;;;;4953377;28;20035;-80
2022/05/24 02:46:43;;;;;;;34.90;25.33;;;13.40;99.90;;;;;;4970610;28;20154;-79
2022/05/24 02:49:10;;;;;;;34.23;26.67;;;13.50;99.90;;;;;;4954138;28;20169;-78
2022/05/24 02:51:38;;;;;;;37.23;28.73;;;13.50;99.90;;;;;;4951135;28;20050;-80
2022/05/24 02:54:05;;;;;;;40.83;29.70;;;13.50;99.90;;;;;;4956134;28;20053;-79
2022/05/24 02:56:31;;;;;;;40.37;30.00;;;13.50;99.90;;;;;;4937821;28;20520;-80
2022/05/24 02:58:57;;;;;;;44.13;31.10;;;13.50;99.90;;;;;;4955296;28;20070;-80
2022/05/24 03:01:26;;;;;;;46.50;32.30;;;13.60;99.90;;;;;;4954314;28;20478;-80
2022/05/24 03:03:53;;;;;;;45.57;32.93;;;13.60;99.90;;;;;;4953524;28;20043;-79
2022/05/24 03:06:21;;;;;;;46.80;33.70;;;13.60;99.90;;;;;;4954020;28;20464;-79
2022/05/24 03:14:14;;;;;;;54.23;34.43;;;13.60;99.90;;;;;;4953829;28;20039;-78
2022/05/24 03:14:20;;;;;;;45.67;33.03;;;13.60;99.90;;;;;;4937616;28;20069;-81
2022/05/24 03:16:47;;;;;;;51.80;35.43;;;13.60;99.90;;;;;;4954584;28;20039;-79
2022/05/24 03:19:14;;;;;;;45.77;34.90;;;13.70;99.90;;;;;;4934863;28;20509;-80
2022/05/24 03:21:41;;;;;;;46.23;35.00;;;13.70;99.90;;;;;;4955009;28;20129;-79
2022/05/24 03:24:08;;;;;;;46.20;33.00;;;13.70;99.90;;;;;;4939341;28;20047;-79
2022/05/24 03:26:34;;;;;;;46.47;33.97;;;13.70;99.90;;;;;;4947658;28;20047;-79
2022/05/24 03:29:02;;;;;;;44.00;34.47;;;13.70;99.90;;;;;;4968820;28;20049;-78
2022/05/24 03:31:28;;;;;;;40.40;32.10;;;13.70;99.90;;;;;;4971473;28;20038;-79
2022/05/24 03:33:54;;;;;;;45.10;35.57;;;13.70;99.90;;;;;;4955186;28;20390;-80
2022/05/24 03:36:20;;;;;;;47.67;34.50;;;13.80;99.90;;;;;;4937454;28;20420;-79
2022/05/24 03:38:47;;;;;;;41.03;32.80;;;13.80;99.90;;;;;;4951599;28;20048;-80
2022/05/24 03:41:13;;;;;;;42.23;34.20;;;13.80;99.90;;;;;;4950424;28;20042;-79
2022/05/24 03:43:39;;;;;;;41.33;31.73;;;13.80;99.90;;;;;;4937687;28;20042;-79
2022/05/24 03:46:08;;;;;;;36.03;30.07;;;13.80;99.90;;;;;;4971284;28;20050;-79
2022/05/24 03:48:34;;;;;;;38.13;30.97;;;13.80;99.90;;;;;;4970304;28;20047;-80
2022/05/24 03:51:00;;;;;;;35.00;29.17;;;13.90;99.90;;;;;;4937391;28;20066;-79
2022/05/24 03:53:26;;;;;;;43.27;29.30;;;13.90;99.90;;;;;;4955611;28;20129;-78
2022/05/24 03:55:54;;;;;;;35.13;28.53;;;13.90;99.90;;;;;;4952602;28;20066;-80
2022/05/24 03:58:20;;;;;;;32.63;27.87;;;13.90;99.90;;;;;;4934876;28;20044;-78
2022/05/24 04:00:46;;;;;;;32.67;27.00;;;14.00;99.90;;;;;;4968950;28;20168;-80
2022/05/24 04:03:13;;;;;;;35.73;27.70;;;14.00;99.90;;;;;;4952343;28;20564;-79
2022/05/24 04:05:41;;;;;;;35.83;28.43;;;14.00;99.90;;;;;;4952492;28;20042;-79
2022/05/24 04:08:07;;;;;;;32.43;27.27;;;14.00;99.90;;;;;;4935108;28;20466;-79
2022/05/24 04:10:35;;;;;;;37.73;27.87;;;14.00;99.90;;;;;;4967770;28;20046;-79
2022/05/24 04:13:03;;;;;;;30.73;25.70;;;14.10;99.90;;;;;;4938820;28;20537;-79
2022/05/24 04:15:29;;;;;;;29.83;25.97;;;14.00;99.90;;;;;;4951488;28;21036;-79
2022/05/24 04:17:55;;;;;;;30.80;25.60;;;14.10;99.90;;;;;;4968619;28;20035;-78
2022/05/24 04:20:24;;;;;;;35.23;27.33;;;14.10;99.90;;;;;;4968498;28;20126;-80
2022/05/24 04:22:52;;;;;;;34.43;25.33;;;14.10;99.90;;;;;;4921868;28;20045;-79
2022/05/24 04:25:18;;;;;;;34.30;27.13;;;14.10;99.90;;;;;;4937563;28;20142;-79
2022/05/24 04:27:44;;;;;;;31.63;25.37;;;14.10;99.90;;;;;;4949478;28;20043;-79
2022/05/24 04:30:13;;;;;;;35.83;24.50;;;14.10;99.90;;;;;;4967889;28;20054;-80
2022/05/24 04:32:38;;;;;;;29.47;24.10;;;14.10;99.90;;;;;;4935239;28;20047;-79
2022/05/24 04:35:05;;;;;;;33.20;25.13;;;14.10;99.90;;;;;;4934363;28;20054;-79
2022/05/24 04:37:31;;;;;;;31.03;25.10;;;14.20;99.90;;;;;;4950144;28;20105;-79
2022/05/24 04:39:56;;;;;;;33.80;25.80;;;14.10;99.90;;;;;;4967207;28;20485;-80
2022/05/24 04:42:22;;;;;;;34.00;25.10;;;14.20;99.90;;;;;;4951563;28;20516;-78
2022/05/24 04:44:51;;;;;;;33.40;26.47;;;14.20;99.90;;;;;;4936484;28;20054;-79
2022/05/24 04:47:19;;;;;;;36.90;27.23;;;14.10;99.90;;;;;;4968401;28;20093;-79
2022/05/24 04:49:47;;;;;;;38.57;27.20;;;14.10;99.90;;;;;;4954257;28;20528;-78
2022/05/24 04:52:14;;;;;;;35.07;28.23;;;14.10;99.90;;;;;;4952712;28;20062;-78
2022/05/24 04:54:41;;;;;;;33.03;26.90;;;14.10;99.90;;;;;;4954793;28;20055;-79
2022/05/24 04:57:08;;;;;;;38.43;28.33;;;14.10;99.90;;;;;;4936762;28;20038;-79
2022/05/24 04:59:34;;;;;;;38.80;29.50;;;14.10;99.90;;;;;;4951752;28;20097;-80
2022/05/24 05:02:01;;;;;;;39.10;29.53;;;14.10;99.90;;;;;;4935513;28;20045;-79
2022/05/24 05:04:28;;;;;;;39.97;29.67;;;14.10;99.90;;;;;;4951957;28;20050;-79
2022/05/24 05:06:54;;;;;;;38.93;30.67;;;14.10;99.90;;;;;;4934237;28;20053;-79
2022/05/24 05:09:20;;;;;;;38.40;29.47;;;14.10;99.90;;;;;;4952868;28;20042;-79
2022/05/24 05:11:46;;;;;;;40.13;29.83;;;14.10;99.90;;;;;;4951823;28;20039;-78
2022/05/24 05:14:12;;;;;;;40.77;29.30;;;14.10;99.90;;;;;;4952947;28;20134;-79
2022/05/24 05:16:40;;;;;;;43.87;30.43;;;14.10;99.90;;;;;;4966370;28;20386;-78
2022/05/24 05:19:08;;;;;;;41.67;29.43;;;14.10;99.90;;;;;;4950717;28;20043;-79
2022/05/24 05:21:36;;;;;;;39.13;29.20;;;14.10;99.90;;;;;;4955343;28;20042;-79
2022/05/24 05:24:04;;;;;;;40.37;28.03;;;14.10;99.90;;;;;;4967417;28;20085;-79
2022/05/24 05:26:30;;;;;;;40.33;27.80;;;14.10;99.90;;;;;;4939465;28;20049;-80
2022/05/24 05:28:56;;;;;;;34.40;25.67;;;14.10;99.90;;;;;;4960735;28;20051;-80
2022/05/24 05:31:26;;;;;;;35.00;24.87;;;14.10;99.90;;;;;;4951214;28;20046;-79
2022/05/24 05:33:54;;;;;;;36.53;24.53;;;14.10;99.90;;;;;;4946863;28;20468;-79
2022/05/24 05:36:20;;;;;;;34.43;25.27;;;14.10;99.90;;;;;;4935068;28;20039;-80
2022/05/24 05:38:48;;;;;;;36.47;23.47;;;14.10;99.90;;;;;;4950756;28;20047;-79
2022/05/24 05:41:15;;;;;;;31.60;21.10;;;14.10;99.90;;;;;;4952805;28;20121;-79
2022/05/24 05:43:42;;;;;;;33.07;21.30;;;14.10;99.90;;;;;;4937275;28;20472;-79
2022/05/24 05:46:08;;;;;;;32.13;20.37;;;14.00;99.90;;;;;;4969030;28;20050;-79
2022/05/24 05:48:35;;;;;;;28.43;20.70;;;14.00;99.90;;;;;;4940021;28;20070;-79
2022/05/24 05:51:01;;;;;;;30.23;20.80;;;14.00;99.90;;;;;;4957741;28;20050;-79
2022/05/24 05:53:27;;;;;;;29.60;21.17;;;14.00;99.90;;;;;;4939461;28;20043;-79
2022/05/24 05:55:54;;;;;;;31.63;20.37;;;14.10;99.90;;;;;;4955006;28;20121;-79
2022/05/24 05:58:20;;;;;;;26.53;20.80;;;14.10;99.90;;;;;;4952768;28;20066;-80
2022/05/24 06:00:48;;;;;;;32.90;20.13;;;14.10;99.90;;;;;;4953987;28;20102;-80
2022/05/24 06:03:14;;;;;;;29.53;20.03;;;14.10;99.90;;;;;;4956235;28;20129;-79
2022/05/24 06:05:42;;;;;;;26.73;18.93;;;14.20;99.90;;;;;;4970881;28;20050;-82
2022/05/24 06:08:08;;;;;;;27.87;18.77;;;14.10;99.90;;;;;;4931102;28;21382;-82
2022/05/24 06:10:36;;;;;;;30.30;20.37;;;14.10;99.90;;;;;;4952989;28;20057;-82
2022/05/24 06:13:03;;;;;;;29.57;18.60;;;14.10;99.90;;;;;;4952879;28;20046;-82
2022/05/24 06:15:30;;;;;;;27.90;18.47;;;14.10;99.90;;;;;;4934807;28;20078;-82
2022/05/24 06:17:57;;;;;;;24.07;16.87;;;14.20;99.90;;;;;;4969245;28;20059;-81
2022/05/24 06:20:25;;;;;;;27.17;17.87;;;14.20;99.90;;;;;;4964245;28;20572;-80
2022/05/24 06:22:52;;;;;;;26.23;17.37;;;14.20;99.90;;;;;;4957928;28;20125;-81
2022/05/24 06:25:18;;;;;;;28.67;18.40;;;14.20;99.90;;;;;;4941081;28;20108;-80
2022/05/24 06:27:44;;;;;;;25.23;17.70;;;14.20;99.90;;;;;;4971616;28;20039;-80
2022/05/24 06:30:13;;;;;;;29.00;17.93;;;14.10;99.90;;;;;;4958116;28;20046;-79
2022/05/24 06:32:38;;;;;;;26.70;18.67;;;14.10;99.90;;;;;;4945192;28;20513;-80
2022/05/24 06:35:05;;;;;;;27.57;18.20;;;14.10;99.90;;;;;;4940584;28;20051;-80
2022/05/24 06:37:31;;;;;;;26.17;17.97;;;14.10;99.90;;;;;;4953042;28;20047;-79
2022/05/24 06:39:57;;;;;;;28.40;18.50;;;14.10;99.90;;;;;;4934168;28;20053;-80
2022/05/24 06:42:23;;;;;;;25.13;16.87;;;14.20;99.90;;;;;;4954340;28;20046;-79
2022/05/24 06:44:50;;;;;;;23.43;17.73;;;14.20;99.90;;;;;;4951283;28;20050;-81
2022/05/24 06:47:17;;;;;;;26.30;17.43;;;14.20;99.90;;;;;;4948220;28;20043;-81
2022/05/24 06:49:43;;;;;;;24.10;17.57;;;14.20;99.90;;;;;;4932818;28;20525;-78
2022/05/24 06:52:09;;;;;;;26.97;17.10;;;14.20;99.90;;;;;;4931368;28;20054;-81
2022/05/24 06:54:35;;;;;;;27.77;16.10;;;14.20;99.90;;;;;;4952459;28;20055;-80
2022/05/24 06:57:01;;;;;;;22.93;17.60;;;14.30;99.90;;;;;;4950884;28;20038;-81
2022/05/24 07:02:26;;;;;;;24.75;16.13;;;14.20;99.90;;;;;;4951889;28;20053;-81
2022/05/24 07:04:57;;;;;;;23.20;16.30;;;14.30;99.90;;;;;;4969938;28;20057;-81
2022/05/24 07:07:24;;;;;;;23.67;17.33;;;14.20;99.90;;;;;;4933209;28;20089;-80
2022/05/24 07:09:50;;;;;;;23.53;16.37;;;14.20;99.90;;;;;;4928491;28;20571;-80
2022/05/24 07:12:17;;;;;;;26.57;15.97;;;14.20;99.90;;;;;;4950656;28;20126;-81
2022/05/24 07:14:43;;;;;;;23.63;15.90;;;14.20;99.90;;;;;;4951493;28;20050;-80
2022/05/24 07:17:09;;;;;;;21.03;14.07;;;14.20;99.90;;;;;;4949576;23;20517;-80
2022/05/24 07:19:35;;;;;;;28.50;15.43;;;14.20;99.90;;;;;;4955640;28;20070;-80
2022/05/24 07:22:04;;;;;;;21.87;15.23;;;14.20;99.90;;;;;;4962375;28;20061;-80
2022/05/24 07:24:29;;;;;;;23.57;14.37;;;14.20;99.90;;;;;;4942542;28;20575;-79
2022/05/24 07:26:55;;;;;;;21.73;13.17;;;14.10;99.90;;;;;;4944676;28;20042;-79
2022/05/24 07:29:21;;;;;;;23.87;13.77;;;14.10;99.90;;;;;;4948816;28;20133;-80
2022/05/24 07:31:47;;;;;;;19.13;13.67;;;14.10;99.90;;;;;;4970692;28;20522;-81
2022/05/24 07:34:12;;;;;;;25.17;14.40;;;14.10;99.90;;;;;;4969156;28;20130;-80
2022/05/24 07:36:38;;;;;;;24.50;14.70;;;14.00;99.90;;;;;;4952776;28;20472;-80
2022/05/24 07:39:05;;;;;;;25.83;14.07;;;14.00;99.90;;;;;;4939495;28;20062;-81
2022/05/24 07:46:59;;;;;;;;;;;14.00;99.90;;;;;;4944787;28;20038;-80
2022/05/24 07:49:25;;;;;;;21.57;13.67;;;14.10;99.90;;;;;;4964959;28;20281;-81
2022/05/24 07:51:51;;;;;;;22.50;14.30;;;14.10;99.90;;;;;;4943907;28;20341;-79
2022/05/24 07:54:18;;;;;;;19.47;14.50;;;14.10;99.90;;;;;;4938379;28;20043;-80
2022/05/24 07:56:45;;;;;;;22.27;14.73;;;14.20;99.90;;;;;;4941678;28;20085;-80
2022/05/24 07:59:11;;;;;;;21.67;15.00;;;14.10;99.90;;;;;;4946803;28;20109;-81
2022/05/24 08:01:36;;;;;;;22.33;14.57;;;14.10;99.90;;;;;;4955710;28;20144;-79
2022/05/24 08:04:03;;;;;;;23.30;13.73;;;14.20;99.90;;;;;;4958053;28;20057;-80
2022/05/24 08:06:28;;;;;;;20.53;14.10;;;14.20;99.90;;;;;;4926443;28;20046;-80
2022/05/24 08:08:54;;;;;;;26.50;13.87;;;14.30;99.90;;;;;;4924167;28;20051;-81
2022/05/24 08:11:21;;;;;;;19.93;13.83;;;14.40;99.90;;;;;;4949725;28;20058;-79
2022/05/24 08:13:47;;;;;;;20.70;13.23;;;14.50;99.90;;;;;;4975979;28;20497;-80
2022/05/24 08:16:13;;;;;;;24.00;14.33;;;14.50;99.90;;;;;;4939273;28;20043;-80
2022/05/24 08:18:39;;;;;;;20.70;13.73;;;14.50;99.90;;;;;;4936779;28;20053;-80
2022/05/24 08:21:04;;;;;;;19.43;13.17;;;14.60;99.90;;;;;;4964373;28;20185;-80
2022/05/24 08:23:31;;;;;;;18.83;12.43;;;14.60;99.90;;;;;;4957961;28;20046;-80
2022/05/24 08:25:56;;;;;;;17.93;12.20;;;14.60;99.90;;;;;;4922140;28;20062;-80
2022/05/24 08:28:24;;;;;;;18.00;11.63;;;14.60;99.90;;;;;;4939844;28;20055;-82
2022/05/24 08:30:50;;;;;;;20.80;13.57;;;14.50;99.90;;;;;;4944080;28;20093;-80
2022/05/24 08:33:17;;;;;;;13.87;11.23;;;14.50;99.90;;;;;;4961067;28;20057;-81
2022/05/24 08:35:45;;;;;;;14.03;10.37;;;14.60;99.90;;;;;;4959630;28;20062;-82
2022/05/24 08:38:14;;;;;;;20.30;10.37;;;14.60;99.90;;;;;;4947623;28;20133;-80
2022/05/24 08:40:43;;;;;;;15.90;8.57;;;14.80;99.90;;;;;;4937850;28;20064;-81
2022/05/24 08:43:22;;;;;;;14.53;7.90;;;14.90;99.90;;;;;;4968451;28;20054;-80
2022/05/24 08:48:42;;;;;;;14.03;7.77;;;15.20;99.90;;;;;;4970045;28;20051;-80
2022/05/24 08:51:15;;;;;;;14.40;7.60;;;15.20;99.90;;;;;;4949407;28;20488;-79
2022/05/24 08:53:45;;;;;;;14.25;5.85;;;15.20;99.90;;;;;;4948873;28;20085;-80
2022/05/24 08:56:15;;;;;;;10.43;5.50;;;15.50;99.90;;;;;;4953866;28;20621;-81
2022/05/24 08:58:46;;;;;;;12.00;5.43;;;15.80;99.90;;;;;;4950675;28;20074;-80
2022/05/24 09:01:17;;;;;;;12.40;4.60;;;16.00;99.90;;;;;;4968646;28;20054;-80
2022/05/24 09:03:43;;;;;;;8.73;4.40;;;16.30;99.90;;;;;;4947222;28;20058;-80
2022/05/24 09:06:14;;;;;;;14.27;4.97;;;16.60;99.90;;;;;;4955666;28;20047;-81
2022/05/24 09:08:55;;;;;;;8.27;4.53;;;16.60;99.90;;;;;;4944166;28;20049;-81
2022/05/24 09:11:30;;;;;;;9.27;4.40;;;16.60;99.90;;;;;;4950940;28;20074;-80
2022/05/24 09:14:09;;;;;;;9.27;4.00;;;16.50;99.90;;;;;;4956002;28;20054;-81
2022/05/24 09:16:52;;;;;;;12.53;4.33;;;16.40;99.90;;;;;;4951418;28;20030;-81
2022/05/24 09:19:22;;;;;;;10.87;4.30;;;16.20;99.90;;;;;;4961767;28;20200;-80
2022/05/24 09:21:52;;;;;;;8.90;4.40;;;16.20;99.90;;;;;;4978989;28;20046;-80
2022/05/24 09:24:26;;;;;;;9.17;3.83;;;16.50;99.90;;;;;;4947543;28;20070;-80
2022/05/24 09:27:05;;;;;;;8.10;3.87;;;16.50;99.90;;;;;;4958352;28;20050;-82
2022/05/24 09:29:32;;;;;;;8.53;4.47;;;16.30;99.90;;;;;;4978038;28;20066;-79
2022/05/24 09:32:04;;;;;;;9.37;3.67;;;16.10;99.90;;;;;;4949551;28;20069;-80
2022/05/24 09:34:33;;;;;;;7.37;3.57;;;16.20;99.90;;;;;;4971176;28;20046;-80
2022/05/24 09:37:01;;;;;;;7.90;3.80;;;16.10;99.90;;;;;;4964612;28;20042;-81
2022/05/24 09:39:30;;;;;;;10.60;4.33;;;16.20;99.90;;;;;;4947492;28;20042;-81
2022/05/24 09:41:58;;;;;;;6.83;3.73;;;16.10;99.90;;;;;;4943767;28;20048;-81
2022/05/24 09:44:24;;;;;;;9.07;3.90;;;16.00;99.90;;;;;;4952574;28;20046;-80
2022/05/24 09:46:50;;;;;;;6.83;4.00;;;15.90;99.90;;;;;;4933467;28;20050;-79
2022/05/24 09:49:24;;;;;;;8.67;4.07;;;15.80;99.90;;;;;;4934730;28;20054;-79
2022/05/24 09:51:55;;;;;;;7.83;4.00;;;15.80;99.90;;;;;;4949097;28;20073;-82
2022/05/24 09:54:25;;;;;;;9.27;4.07;;;15.90;99.90;;;;;;4947389;28;20049;-79
2022/05/24 09:57:05;;;;;;;8.87;4.40;;;16.00;99.90;;;;;;4956814;28;20050;-80
2022/05/24 09:59:33;;;;;;;9.97;4.63;;;16.10;99.90;;;;;;4958352;28;20039;-81
2022/05/24 10:01:59;;;;;;;7.80;4.63;;;16.40;99.90;;;;;;4951721;28;20038;-80
2022/05/24 10:04:29;;;;;;;7.07;3.90;;;16.70;99.90;;;;;;4970154;28;20699;-81
2022/05/24 10:06:58;;;;;;;6.53;4.03;;;17.10;99.90;;;;;;4943862;28;20051;-80
2022/05/24 10:09:59;;;;;;;7.47;3.70;;;17.30;99.90;;;;;;4951978;28;20050;-79
2022/05/24 10:12:35;;;;;;;7.87;3.90;;;17.70;99.90;;;;;;4941092;28;20059;-81
2022/05/24 10:15:14;;;;;;;6.67;3.80;;;17.50;99.90;;;;;;4945120;28;20059;-80
2022/05/24 10:17:48;;;;;;;6.20;3.20;;;17.30;99.90;;;;;;4957322;28;20043;-80
2022/05/24 10:20:27;;;;;;;4.10;1.80;;;17.30;99.90;;;;;;4943091;28;20484;-80
2022/05/24 10:22:59;;;;;;;3.20;1.37;;;17.40;99.90;;;;;;4967810;28;21008;-83
2022/05/24 10:25:29;;;;;;;2.77;1.30;;;17.50;99.90;;;;;;4964113;28;20050;-80
2022/05/24 10:28:17;;;;;;;4.43;1.30;;;17.70;99.90;;;;;;4963493;28;20499;-80
2022/05/24 10:30:57;;;;;;;4.70;1.33;;;18.10;99.90;;;;;;4976103;28;20046;-79
2022/05/24 10:39:16;;;;;;;;;;;18.10;99.90;;;;;;4964218;28;20500;-78
2022/05/24 10:41:55;;;;;;;5.22;1.63;;;18.00;99.90;;;;;;4966166;28;20320;-81
2022/05/24 10:44:28;;;;;;;2.80;0.80;;;17.60;99.90;;;;;;4953667;28;20057;-79
2022/05/24 10:47:01;;;;;;;2.80;0.90;;;17.20;99.90;;;;;;4950138;28;20043;-82
2022/05/24 10:49:36;;;;;;;5.53;1.10;;;16.70;99.90;;;;;;4949777;28;20049;-81
2022/05/24 10:52:09;;;;;;;5.27;0.90;;;16.30;99.90;;;;;;4945680;28;20050;-79
2022/05/24 10:54:43;;;;;;;4.57;0.97;;;15.90;99.90;;;;;;4966977;28;20065;-80
2022/05/24 10:57:14;;;;;;;2.63;0.50;;;15.50;99.90;;;;;;4967620;28;20149;-80
2022/05/24 10:59:52;;;;;;;2.37;0.60;;;15.20;99.90;;;;;;4943126;28;20043;-80
2022/05/24 11:02:25;;;;;;;2.87;0.47;;;15.10;99.90;;;;;;4953121;28;20082;-80
2022/05/24 11:04:56;;;;;;;2.15;0.40;;;14.80;99.90;;;;;;4959140;28;20035;-80
2022/05/24 11:07:26;;;;;;;1.47;0.50;;;14.60;99.90;;;;;;4959173;28;20074;-81
2022/05/24 11:10:05;;;;;;;3.40;0.93;;;14.40;99.90;;;;;;4978423;28;20402;-80
2022/05/24 11:12:38;;;;;;;3.00;1.03;;;14.10;99.90;;;;;;4943558;28;20522;-83
2022/05/24 11:15:09;;;;;;;8.50;1.47;;;14.00;99.90;;;;;;4956293;28;20166;-85
2022/05/24 11:17:35;;;;;;;2.90;1.17;;;13.80;99.90;;;;;;4967955;28;20441;-80
2022/05/24 11:20:04;;;;;;;4.93;1.40;;;13.70;99.90;;;;;;4944228;28;20050;-79
2022/05/24 11:22:38;;;;;;;2.37;1.00;;;13.70;99.90;;;;;;4948560;28;20069;-81
2022/05/24 11:25:06;;;;;;;;;;;13.70;99.90;;;;;;4942090;28;20046;-80
2022/05/24 11:27:34;;;;;;;3.73;1.90;;;13.60;99.90;;;;;;4935063;28;19938;-80
2022/05/24 11:30:09;;;;;;;3.63;1.90;;;13.70;99.90;;;;;;4966937;28;20132;-81
2022/05/24 11:32:39;;;;;;;3.00;1.73;;;13.70;99.90;;;;;;4940200;28;20497;-84
2022/05/24 11:35:10;;;;;;;6.97;2.10;;;13.70;99.90;;;;;;4943902;28;20129;-79
2022/05/24 11:37:40;;;;;;;3.40;2.27;;;13.80;99.90;;;;;;4933561;28;20050;-80
2022/05/24 11:40:30;;;;;;;2.97;2.27;;;13.90;99.90;;;;;;4955312;28;20042;-79
2022/05/24 11:42:57;;;;;;;4.23;1.93;;;13.90;99.90;;;;;;4956786;28;20417;-79
2022/05/24 11:45:55;;;;;;;5.83;1.97;;;13.90;99.90;;;;;;4930443;28;20042;-81
2022/05/24 11:48:22;;;;;;;4.33;1.47;;;13.90;99.90;;;;;;4967430;28;20799;-80
2022/05/24 11:50:50;;;;;;;2.57;1.43;;;13.90;99.90;;;;;;4934994;28;20054;-80
2022/05/24 11:53:43;;;;;;;2.07;1.40;;;13.90;99.90;;;;;;4954125;28;20038;-80
2022/05/24 11:56:21;;;;;;;4.17;1.27;;;14.00;99.90;;;;;;4949753;28;20058;-80
2022/05/24 11:58:53;;;;;;;2.63;1.37;;;14.20;99.90;;;;;;4946539;28;20560;-80
2022/05/24 12:01:39;;;;;;;;;;;14.40;99.90;;;;;;4953875;28;20058;-80
2022/05/24 12:10:34;;;;;;;2.60;1.37;;;15.60;99.90;;;;;;4963055;28;20595;-79
2022/05/24 12:13:28;;;;;;;3.03;1.27;;;16.10;99.90;;;;;;4976267;28;20054;-82
2022/05/24 12:15:57;;;;;;;5.23;1.67;;;16.10;99.90;;;;;;4924569;28;20104;-81
2022/05/24 12:18:37;;;;;;;4.07;1.60;;;16.30;99.90;;;;;;4976535;28;20042;-80
2022/05/24 12:21:03;;;;;;;3.60;1.53;;;16.90;99.90;;;;;;4957182;28;20042;-81
2022/05/24 12:23:41;;;;;;;2.67;1.53;;;17.00;99.90;;;;;;4946674;28;20042;-82
2022/05/24 12:26:12;;;;;;;4.43;1.57;;;17.30;99.90;;;;;;4940301;28;20046;-79
2022/05/24 12:28:48;;;;;;;3.13;1.30;;;17.80;99.90;;;;;;4958708;28;20061;-80
2022/05/24 12:31:28;;;;;;;5.13;1.50;;;17.90;99.90;;;;;;4957687;28;20075;-81
2022/05/24 12:33:55;;;;;;;3.40;1.57;;;17.90;99.90;;;;;;4970619;28;20050;-80
2022/05/24 12:36:32;;;;;;;8.07;1.97;;;18.30;99.90;;;;;;4951116;28;20085;-81
2022/05/24 12:39:03;;;;;;;2.87;1.13;;;18.60;99.90;;;;;;4954810;28;20043;-81
2022/05/24 12:41:34;;;;;;;3.93;1.50;;;18.80;99.90;;;;;;4932340;28;20057;-80
2022/05/24 12:44:02;;;;;;;4.93;1.40;;;19.10;99.90;;;;;;4953029;28;20085;-81
2022/05/24 12:46:31;;;;;;;2.53;1.00;;;19.20;99.90;;;;;;4948526;28;20195;-80
2022/05/24 12:49:01;;;;;;;2.77;1.27;;;19.00;99.90;;;;;;4979204;28;20049;-80
2022/05/24 12:51:26;;;;;;;1.50;0.80;;;18.50;99.90;;;;;;4967136;28;20446;-81
2022/05/24 12:53:53;;;;;;;3.43;1.00;;;17.80;99.90;;;;;;4953626;28;20046;-81
2022/05/24 12:56:23;;;;;;;1.97;1.00;;;17.30;99.90;;;;;;4958999;28;20042;-81
2022/05/24 12:58:51;;;;;;;2.40;0.83;;;16.90;99.90;;;;;;4954138;28;20041;-81
2022/05/24 13:01:21;;;;;;;4.03;0.87;;;16.60;99.90;;;;;;4952379;28;20691;-81
2022/05/24 13:04:10;;;;;;;2.60;0.80;;;16.50;99.90;;;;;;4978672;28;20061;-80
2022/05/24 13:06:48;;;;;;;1.67;0.70;;;16.30;99.90;;;;;;4942275;28;20484;-80
2022/05/24 13:09:18;;;;;;;2.57;0.80;;;16.10;99.90;;;;;;4955816;28;20050;-78
2022/05/24 13:11:46;;;;;;;2.43;0.70;;;15.90;99.90;;;;;;4932535;28;20066;-81
2022/05/24 13:14:45;;;;;;;2.83;0.90;;;15.80;99.90;;;;;;4955977;28;20050;-80
2022/05/24 13:17:14;;;;;;;2.10;0.77;;;15.70;99.90;;;;;;4937321;28;20051;-81
2022/05/24 13:19:44;;;;;;;1.37;0.70;;;15.70;99.90;;;;;;4946109;28;20046;-82